Bermejo Airport


Codes: SLBJ/BJO
Name: Bermejo Airport
City: Bermejo
Country: Bolivia
Elevation: 1249 ft.
Wikipedia:

Photos at Bermejo Airport


   Photos courtesy of SpottingLog. You can add your own sightings and photos by signing up for a free trial today.



No photos found.

Weather at Bermejo Airport


Time (UTC)DescriptionTempratureWindCloud coverageVisibilityPressureHumidity
15-Apr-2024 18:00Overcast Clouds19°C2 mph, E99%10000m1010hPa78%
15-Apr-2024 21:00Light Rain18°C0 mph, E99%10000m1010hPa83%
16-Apr-2024 00:00Overcast Clouds16°C0 mph, W100%10000m1012hPa90%
16-Apr-2024 03:00Overcast Clouds15°C0 mph, SW99%10000m1014hPa93%
16-Apr-2024 06:00Overcast Clouds15°C0 mph, NW97%10000m1013hPa94%
16-Apr-2024 09:00Broken Clouds13°C0 mph, N59%10000m1014hPa98%
16-Apr-2024 12:00Scattered Clouds15°C2 mph, NW49%10000m1016hPa88%
16-Apr-2024 15:00Broken Clouds24°C2 mph, S62%10000m1016hPa47%
16-Apr-2024 18:00Scattered Clouds27°C4 mph, S40%10000m1012hPa37%
16-Apr-2024 21:00Clear Sky24°C4 mph, SE0%10000m1013hPa49%
17-Apr-2024 00:00Clear Sky16°C2 mph, NW0%10000m1017hPa82%
17-Apr-2024 03:00Few Clouds16°C0 mph, N24%10000m1019hPa84%
17-Apr-2024 06:00Scattered Clouds15°C2 mph, NE41%10000m1019hPa88%
17-Apr-2024 09:00Broken Clouds15°C0 mph, E65%10000m1018hPa91%
17-Apr-2024 12:00Scattered Clouds18°C0 mph, N32%10000m1020hPa76%
17-Apr-2024 15:00Clear Sky26°C2 mph, N0%10000m1019hPa44%
17-Apr-2024 18:00Few Clouds28°C4 mph, SE12%10000m1015hPa37%
17-Apr-2024 21:00Broken Clouds25°C4 mph, SE53%10000m1015hPa48%
18-Apr-2024 00:00Broken Clouds20°C0 mph, NW57%10000m1018hPa69%
18-Apr-2024 03:00Overcast Clouds20°C0 mph, N100%10000m1019hPa70%
18-Apr-2024 06:00Overcast Clouds19°C0 mph, W100%10000m1018hPa73%
18-Apr-2024 09:00Broken Clouds17°C0 mph, S79%10000m1018hPa82%
18-Apr-2024 12:00Scattered Clouds19°C0 mph, W40%10000m1021hPa73%
18-Apr-2024 15:00Clear Sky27°C2 mph, SE0%10000m1019hPa45%
18-Apr-2024 18:00Clear Sky30°C2 mph, E4%10000m1014hPa37%
18-Apr-2024 21:00Scattered Clouds27°C4 mph, E32%10000m1013hPa49%
19-Apr-2024 00:00Scattered Clouds20°C0 mph, N40%10000m1015hPa77%
19-Apr-2024 03:00Clear Sky17°C2 mph, N6%10000m1016hPa89%
19-Apr-2024 06:00Clear Sky16°C2 mph, NE3%10000m1015hPa94%
19-Apr-2024 09:00Clear Sky15°C2 mph, N0%10000m1014hPa97%
19-Apr-2024 12:00Clear Sky19°C0 mph, N1%10000m1015hPa78%
19-Apr-2024 15:00Clear Sky28°C2 mph, NE0%10000m1013hPa46%
19-Apr-2024 18:00Clear Sky32°C2 mph, NE3%10000m1008hPa36%
19-Apr-2024 21:00Scattered Clouds30°C4 mph, E38%10000m1008hPa46%
20-Apr-2024 00:00Broken Clouds25°C2 mph, SW67%10000m1010hPa65%
20-Apr-2024 03:00Overcast Clouds23°C0 mph, NE100%10000m1011hPa72%
20-Apr-2024 06:00Overcast Clouds22°C0 mph, NW100%10000m1010hPa77%
20-Apr-2024 09:00Scattered Clouds19°C0 mph, NW32%10000m1010hPa90%
20-Apr-2024 12:00Few Clouds22°C0 mph, NW16%10000m1011hPa74%
20-Apr-2024 15:00Clear Sky30°C2 mph, NE0%10000m1009hPa48%